Time;durP1;ratioP1;P1;durP2;ratioP2;P2;SDS_P1;SDS_P2;PMS_P1;PMS_P2;Temp;Humidity;BMP_temperature;BMP_pressure;BME280_temperature;BME280_humidity;BME280_pressure;Samples;Min_cycle;Max_cycle;Signal;HPM_P1;HPM_P2
2021/03/25 00:02:07;;;;;;;5.88;4.20;;;18.60;51.70;;;;;;4878853;29;20210;-67
2021/03/25 00:04:33;;;;;;;4.15;3.75;;;18.60;51.70;;;;;;4879033;29;20545;-69
2021/03/25 00:07:00;;;;;;;4.30;4.00;;;18.60;51.70;;;;;;4862740;29;20551;-66
2021/03/25 00:09:30;;;;;;;4.35;3.85;;;18.60;52.30;;;;;;4877289;29;20324;-66
2021/03/25 00:11:56;;;;;;;3.70;3.40;;;18.50;51.70;;;;;;4879191;29;20169;-67
2021/03/25 00:14:21;;;;;;;4.18;3.78;;;18.50;51.70;;;;;;4878940;29;20180;-71
2021/03/25 00:16:47;;;;;;;4.38;3.97;;;18.50;51.70;;;;;;4878631;29;20201;-67
2021/03/25 00:19:13;;;;;;;4.07;3.67;;;18.50;51.70;;;;;;4879248;29;20177;-71
2021/03/25 00:21:39;;;;;;;5.22;4.55;;;18.50;51.70;;;;;;4878849;29;20663;-67
2021/03/25 00:24:05;;;;;;;4.32;3.92;;;18.50;51.70;;;;;;4877660;29;20177;-69
2021/03/25 00:26:31;;;;;;;4.38;3.97;;;18.50;51.70;;;;;;4877607;29;20177;-70
2021/03/25 00:28:56;;;;;;;4.60;4.20;;;18.50;51.70;;;;;;4877870;29;20179;-69
2021/03/25 00:31:22;;;;;;;4.40;4.00;;;18.40;51.70;;;;;;4878284;29;20257;-69
2021/03/25 00:33:48;;;;;;;4.90;4.20;;;18.40;51.60;;;;;;4862239;29;20192;-69
2021/03/25 00:36:14;;;;;;;4.22;3.88;;;18.40;51.70;;;;;;4878153;29;20569;-70
2021/03/25 00:38:39;;;;;;;4.90;4.50;;;18.40;51.60;;;;;;4877060;29;20292;-71
2021/03/25 00:41:05;;;;;;;4.10;3.70;;;18.40;51.70;;;;;;4878818;29;20173;-69
2021/03/25 00:43:30;;;;;;;4.43;4.03;;;18.40;51.70;;;;;;4878118;29;20200;-70
2021/03/25 00:45:56;;;;;;;4.45;4.05;;;18.40;51.70;;;;;;4878841;29;20184;-67
2021/03/25 00:48:23;;;;;;;4.30;3.90;;;18.40;51.70;;;;;;4878653;29;20185;-68
2021/03/25 00:50:53;;;;;;;4.38;3.97;;;18.40;51.60;;;;;;4878242;29;20280;-68
2021/03/25 00:53:24;;;;;;;4.10;3.70;;;18.40;51.70;;;;;;4862220;29;20690;-69
2021/03/25 00:55:50;;;;;;;4.45;4.00;;;18.40;51.60;;;;;;4877640;29;20185;-70
2021/03/25 00:58:15;;;;;;;3.97;3.67;;;18.40;51.60;;;;;;4878080;29;20277;-68
2021/03/25 01:00:42;;;;;;;4.53;4.13;;;18.40;51.70;;;;;;4877236;29;20689;-68
2021/03/25 01:03:08;;;;;;;4.32;3.92;;;18.30;52.20;;;;;;4878665;29;20185;-70
2021/03/25 01:05:34;;;;;;;4.85;4.03;;;18.30;51.70;;;;;;4877863;29;20207;-67
2021/03/25 01:07:59;;;;;;;4.93;4.43;;;18.30;51.60;;;;;;4877671;29;20201;-67
2021/03/25 01:10:32;;;;;;;4.25;3.85;;;18.30;51.60;;;;;;4878354;29;20169;-67
2021/03/25 01:12:58;;;;;;;4.65;4.25;;;18.30;51.60;;;;;;4876907;29;20189;-71
2021/03/25 01:15:24;;;;;;;5.30;4.78;;;18.30;51.60;;;;;;4877123;29;20173;-67
2021/03/25 01:17:59;;;;;;;4.68;4.28;;;18.30;51.60;;;;;;4877398;29;20213;-67
2021/03/25 01:20:29;;;;;;;4.72;4.32;;;18.30;51.70;;;;;;4876565;29;20650;-68
2021/03/25 01:22:54;;;;;;;5.10;4.60;;;18.30;51.90;;;;;;4878497;29;20690;-67
2021/03/25 01:25:20;;;;;;;4.43;4.03;;;18.30;51.60;;;;;;4877116;29;20178;-70
2021/03/25 01:27:46;;;;;;;5.30;4.70;;;18.20;51.60;;;;;;4876797;29;20184;-68
2021/03/25 01:30:12;;;;;;;4.80;4.40;;;18.20;51.60;;;;;;4878506;29;20181;-69
2021/03/25 01:32:37;;;;;;;4.60;4.20;;;18.20;51.60;;;;;;4877648;29;20181;-70
2021/03/25 01:35:09;;;;;;;5.25;4.72;;;18.20;51.60;;;;;;4878349;29;20553;-72
2021/03/25 01:37:34;;;;;;;4.80;4.30;;;18.20;51.60;;;;;;4881638;29;20201;-68
2021/03/25 01:40:00;;;;;;;5.22;4.72;;;18.20;51.60;;;;;;4881276;29;20271;-71
2021/03/25 01:42:28;;;;;;;4.70;4.30;;;18.20;51.60;;;;;;4881804;29;20252;-66
2021/03/25 01:44:53;;;;;;;5.05;4.65;;;18.20;51.60;;;;;;4881682;29;20183;-70
2021/03/25 01:47:19;;;;;;;5.15;4.65;;;18.20;51.60;;;;;;4879941;29;20166;-67
2021/03/25 01:49:45;;;;;;;4.88;4.43;;;18.20;51.60;;;;;;4880588;29;20268;-71
2021/03/25 01:52:21;;;;;;;5.15;4.63;;;18.20;51.60;;;;;;4881583;29;20173;-70
2021/03/25 01:55:25;;;;;;;5.10;4.65;;;18.20;51.60;;;;;;4864301;29;20536;-70
2021/03/25 01:58:03;;;;;;;4.60;4.25;;;18.10;51.60;;;;;;4880488;29;20220;-69
2021/03/25 02:00:50;;;;;;;5.55;5.05;;;18.20;51.60;;;;;;4881263;29;20224;-68
2021/03/25 02:03:23;;;;;;;5.15;4.63;;;18.20;51.60;;;;;;4881508;29;20185;-70
2021/03/25 02:06:06;;;;;;;5.18;4.78;;;18.10;51.50;;;;;;4880243;29;20198;-68
2021/03/25 02:08:34;;;;;;;5.57;5.07;;;18.10;51.50;;;;;;4879610;29;20173;-69
2021/03/25 02:11:24;;;;;;;5.15;4.65;;;18.10;51.50;;;;;;4881367;29;20174;-69
2021/03/25 02:14:06;;;;;;;5.95;5.07;;;18.10;51.50;;;;;;4881175;29;20184;-68
2021/03/25 02:16:38;;;;;;;5.13;4.63;;;18.10;51.50;;;;;;4879362;29;20196;-70
2021/03/25 02:19:17;;;;;;;5.40;4.90;;;18.10;51.50;;;;;;4880001;29;20205;-72
2021/03/25 02:21:49;;;;;;;5.55;5.05;;;18.10;51.50;;;;;;4879910;29;20176;-72
2021/03/25 02:24:26;;;;;;;5.30;4.72;;;18.10;51.60;;;;;;4881102;29;20184;-67
2021/03/25 02:26:54;;;;;;;6.63;4.68;;;18.00;51.50;;;;;;4881054;29;20208;-71
2021/03/25 02:29:33;;;;;;;5.63;5.13;;;18.10;51.50;;;;;;4879199;29;20191;-70
2021/03/25 02:32:03;;;;;;;5.20;4.70;;;18.00;51.50;;;;;;4864544;29;20169;-69
2021/03/25 02:34:32;;;;;;;5.40;4.90;;;18.10;51.50;;;;;;4863880;29;20189;-70
2021/03/25 02:37:18;;;;;;;5.40;4.90;;;18.10;51.50;;;;;;4879375;29;20232;-66
2021/03/25 02:39:50;;;;;;;5.60;5.10;;;18.00;51.50;;;;;;4879722;29;20177;-66
2021/03/25 02:42:16;;;;;;;5.97;5.45;;;18.00;51.50;;;;;;4880899;29;20197;-66
2021/03/25 02:44:50;;;;;;;5.18;4.68;;;18.00;51.40;;;;;;4863199;29;20182;-67
2021/03/25 02:47:16;;;;;;;5.47;4.95;;;18.00;51.40;;;;;;4863309;29;20173;-67
2021/03/25 02:50:02;;;;;;;5.75;5.20;;;18.00;51.40;;;;;;4879343;29;20169;-68
2021/03/25 02:52:34;;;;;;;5.20;4.70;;;18.00;51.40;;;;;;4879452;29;20225;-71
2021/03/25 02:55:02;;;;;;;5.50;5.00;;;18.00;51.40;;;;;;4863745;29;20185;-67
2021/03/25 02:57:32;;;;;;;5.25;4.80;;;18.00;51.50;;;;;;4862980;29;20296;-72
2021/03/25 03:00:00;;;;;;;5.70;5.18;;;18.00;51.50;;;;;;4870388;29;20232;-67
2021/03/25 03:02:36;;;;;;;5.53;5.03;;;18.00;51.40;;;;;;4879035;29;20272;-66
2021/03/25 03:05:06;;;;;;;5.75;5.15;;;18.00;51.60;;;;;;4878681;29;20634;-70
2021/03/25 03:07:36;;;;;;;5.22;4.72;;;17.90;51.40;;;;;;4878900;29;20181;-67
2021/03/25 03:10:05;;;;;;;5.07;4.65;;;18.00;51.40;;;;;;4879167;29;20174;-71
2021/03/25 03:12:34;;;;;;;5.90;5.30;;;18.00;51.40;;;;;;4878214;29;20268;-71
2021/03/25 03:15:09;;;;;;;6.70;5.70;;;17.90;51.40;;;;;;4879060;29;20696;-71
2021/03/25 03:17:39;;;;;;;5.75;5.15;;;17.90;51.40;;;;;;4878646;29;20267;-70
2021/03/25 03:20:08;;;;;;;6.68;6.07;;;17.90;51.40;;;;;;4878382;29;20277;-71
2021/03/25 03:22:35;;;;;;;5.45;4.95;;;17.90;51.40;;;;;;4878683;29;20184;-66
2021/03/25 03:25:04;;;;;;;6.13;5.47;;;17.90;51.40;;;;;;4878819;29;20185;-67
2021/03/25 03:27:47;;;;;;;6.70;5.10;;;17.90;51.40;;;;;;4878415;29;20641;-68
2021/03/25 03:30:16;;;;;;;5.90;5.30;;;17.90;51.50;;;;;;4879865;29;20229;-68
2021/03/25 03:32:47;;;;;;;5.45;4.95;;;17.90;51.40;;;;;;4878033;29;20185;-69
2021/03/25 03:35:24;;;;;;;6.53;5.93;;;17.90;51.40;;;;;;4878668;29;20173;-66
2021/03/25 03:37:53;;;;;;;5.63;5.13;;;17.90;51.40;;;;;;4878513;29;20213;-66
2021/03/25 03:40:23;;;;;;;7.45;5.40;;;17.80;51.30;;;;;;4877740;29;20241;-65
2021/03/25 03:42:49;;;;;;;5.50;5.00;;;17.90;51.40;;;;;;4879878;29;20512;-66
2021/03/25 03:45:17;;;;;;;6.38;5.70;;;17.80;51.40;;;;;;4878592;29;20188;-70
2021/03/25 03:47:43;;;;;;;5.82;5.32;;;17.80;51.40;;;;;;4877732;29;20180;-71
2021/03/25 03:50:17;;;;;;;5.88;5.38;;;17.80;51.40;;;;;;4878390;29;20169;-68
2021/03/25 03:52:43;;;;;;;5.82;5.28;;;17.90;51.40;;;;;;4878279;29;20259;-68
2021/03/25 03:55:11;;;;;;;5.45;4.93;;;17.80;51.40;;;;;;4877639;29;20754;-68
2021/03/25 03:57:57;;;;;;;6.53;5.55;;;17.80;51.40;;;;;;4862571;29;20586;-68
2021/03/25 04:00:26;;;;;;;6.07;5.57;;;17.80;51.40;;;;;;4877301;29;20228;-66
2021/03/25 04:03:13;;;;;;;6.28;5.68;;;17.80;51.40;;;;;;4878205;29;20177;-68
2021/03/25 04:05:40;;;;;;;6.35;5.30;;;17.80;51.40;;;;;;4877841;29;20672;-66
2021/03/25 04:08:25;;;;;;;6.28;5.68;;;17.80;51.40;;;;;;4862104;29;20607;-68
2021/03/25 04:11:00;;;;;;;6.13;5.53;;;17.80;51.40;;;;;;4878130;29;20173;-67
2021/03/25 04:13:34;;;;;;;5.97;5.38;;;17.80;51.40;;;;;;4877920;29;20184;-66
2021/03/25 04:16:00;;;;;;;5.93;5.43;;;17.80;51.40;;;;;;4877493;29;20169;-72
2021/03/25 04:18:44;;;;;;;6.68;5.88;;;17.80;51.40;;;;;;4877657;29;20224;-71
2021/03/25 04:21:15;;;;;;;6.05;5.53;;;17.80;51.50;;;;;;4877985;29;20177;-66
2021/03/25 04:23:41;;;;;;;5.55;5.15;;;17.80;51.50;;;;;;4877136;29;20173;-66
2021/03/25 04:26:13;;;;;;;6.68;6.00;;;17.70;51.40;;;;;;4877922;29;20173;-69
2021/03/25 04:28:41;;;;;;;6.30;5.40;;;17.70;51.40;;;;;;4877161;29;20256;-68
2021/03/25 04:31:08;;;;;;;6.15;5.50;;;17.70;51.40;;;;;;4877938;29;21005;-69
2021/03/25 04:33:35;;;;;;;5.80;5.30;;;17.70;51.40;;;;;;4878692;29;20184;-68
2021/03/25 04:36:01;;;;;;;6.10;5.55;;;17.70;51.50;;;;;;4877195;29;20260;-67
2021/03/25 04:38:30;;;;;;;6.85;6.10;;;17.70;51.40;;;;;;4877499;29;20337;-66
2021/03/25 04:40:56;;;;;;;6.47;5.75;;;17.70;51.40;;;;;;4877751;29;20174;-66
2021/03/25 04:43:22;;;;;;;6.32;5.57;;;17.70;51.50;;;;;;4876904;29;20188;-67
2021/03/25 04:45:57;;;;;;;6.00;5.38;;;17.70;51.40;;;;;;4878895;29;20282;-66
2021/03/25 04:48:24;;;;;;;6.00;5.40;;;17.70;51.50;;;;;;4877499;29;20705;-67
2021/03/25 04:51:13;;;;;;;5.65;5.15;;;17.70;51.40;;;;;;4877008;29;20377;-67
2021/03/25 04:53:39;;;;;;;6.57;5.82;;;17.70;51.50;;;;;;4878522;29;20184;-70
2021/03/25 04:56:12;;;;;;;6.05;5.45;;;17.70;51.40;;;;;;4877620;29;20173;-68
2021/03/25 04:58:46;;;;;;;6.97;6.07;;;17.70;51.50;;;;;;4876804;29;20213;-67
2021/03/25 05:01:33;;;;;;;6.50;5.85;;;17.70;51.40;;;;;;4877524;29;20192;-68
2021/03/25 05:04:01;;;;;;;6.70;6.00;;;17.70;51.50;;;;;;4876564;29;20193;-66
2021/03/25 05:06:35;;;;;;;6.05;5.47;;;17.70;51.50;;;;;;4878503;29;20182;-66
2021/03/25 05:09:01;;;;;;;6.30;5.65;;;17.60;51.40;;;;;;4878706;29;20177;-67
2021/03/25 05:11:27;;;;;;;5.60;5.00;;;17.60;51.40;;;;;;4878722;29;20552;-70
2021/03/25 05:13:55;;;;;;;6.70;6.10;;;17.60;51.40;;;;;;4881058;29;20260;-72
2021/03/25 05:16:29;;;;;;;6.28;5.75;;;17.60;51.40;;;;;;4881058;29;20178;-71
2021/03/25 05:19:01;;;;;;;7.00;6.03;;;17.60;51.40;;;;;;4881653;29;20708;-67
2021/03/25 05:22:06;;;;;;;6.63;6.03;;;17.60;51.40;;;;;;4881960;29;20181;-66
2021/03/25 05:24:46;;;;;;;6.30;5.70;;;17.60;51.40;;;;;;4867052;29;20189;-67
2021/03/25 05:27:39;;;;;;;6.45;5.85;;;17.60;51.40;;;;;;4880985;29;20673;-68
2021/03/25 05:30:10;;;;;;;6.15;5.57;;;17.60;51.40;;;;;;4882029;29;20530;-69
2021/03/25 05:32:41;;;;;;;6.18;5.65;;;17.60;51.40;;;;;;4879993;29;20253;-68
2021/03/25 05:35:08;;;;;;;6.05;5.55;;;17.60;52.00;;;;;;4880780;29;20216;-67
2021/03/25 05:37:34;;;;;;;6.30;5.65;;;17.60;51.50;;;;;;4880547;29;20205;-67
2021/03/25 05:40:01;;;;;;;6.50;5.90;;;17.60;51.40;;;;;;4880041;29;20178;-66
2021/03/25 05:42:32;;;;;;;7.35;6.65;;;17.60;51.40;;;;;;4880492;29;20173;-66
2021/03/25 05:45:22;;;;;;;6.40;5.80;;;17.60;51.40;;;;;;4880554;29;20173;-67
2021/03/25 05:48:27;;;;;;;6.47;5.85;;;17.50;51.40;;;;;;4879856;29;20166;-71
2021/03/25 05:51:16;;;;;;;6.07;5.50;;;17.50;51.40;;;;;;4866840;29;20563;-68
2021/03/25 05:53:47;;;;;;;7.18;6.40;;;17.50;51.40;;;;;;4879697;29;20170;-69
2021/03/25 05:56:30;;;;;;;7.00;6.30;;;17.60;51.40;;;;;;4880735;29;20637;-68
2021/03/25 05:58:58;;;;;;;6.40;5.88;;;17.50;51.40;;;;;;4880299;29;20213;-68
2021/03/25 06:01:26;;;;;;;6.45;5.80;;;17.50;51.40;;;;;;4864115;29;20641;-68
2021/03/25 06:04:22;;;;;;;6.50;5.90;;;17.50;51.40;;;;;;4881398;29;20301;-69
2021/03/25 06:07:06;;;;;;;6.15;5.60;;;17.50;51.40;;;;;;4880279;29;20177;-67
2021/03/25 06:09:50;;;;;;;6.60;5.90;;;17.50;51.40;;;;;;4881405;29;20220;-68
2021/03/25 06:12:20;;;;;;;6.35;5.75;;;17.50;51.50;;;;;;4881390;29;20186;-68
2021/03/25 06:15:04;;;;;;;6.55;5.65;;;17.50;51.50;;;;;;4879651;29;20229;-71
2021/03/25 06:17:44;;;;;;;6.63;6.03;;;17.50;51.50;;;;;;4864056;29;20300;-72
2021/03/25 06:20:14;;;;;;;5.75;5.25;;;17.50;51.50;;;;;;4864541;29;20260;-66
2021/03/25 06:22:52;;;;;;;6.78;6.05;;;17.50;51.60;;;;;;4877986;29;20246;-69
2021/03/25 06:25:53;;;;;;;6.30;5.70;;;17.50;51.50;;;;;;4864563;29;20233;-68
2021/03/25 06:29:03;;;;;;;5.47;4.97;;;17.40;51.50;;;;;;4879340;29;20208;-68
2021/03/25 06:31:58;;;;;;;6.05;5.45;;;17.40;51.60;;;;;;4859351;29;20185;-69
2021/03/25 06:34:33;;;;;;;5.53;5.05;;;17.40;51.60;;;;;;4879929;29;20195;-71
2021/03/25 06:37:18;;;;;;;5.90;5.38;;;17.40;51.60;;;;;;4879271;29;20187;-66
2021/03/25 06:39:56;;;;;;;5.90;5.40;;;17.40;51.60;;;;;;4880018;29;20173;-66
2021/03/25 06:42:37;;;;;;;5.72;5.15;;;17.40;51.50;;;;;;4863583;29;20169;-66
2021/03/25 06:45:10;;;;;;;6.90;5.63;;;17.50;51.60;;;;;;4881010;29;20173;-68
2021/03/25 06:47:49;;;;;;;6.10;5.60;;;17.50;51.50;;;;;;4879391;29;20368;-67
2021/03/25 06:50:18;;;;;;;6.32;5.68;;;17.50;51.50;;;;;;4879079;29;20212;-69
2021/03/25 06:52:44;;;;;;;5.72;5.13;;;17.50;51.40;;;;;;4880657;29;20169;-68
2021/03/25 06:55:20;;;;;;;6.00;5.50;;;17.50;51.40;;;;;;4880472;29;20318;-68
2021/03/25 06:57:59;;;;;;;5.80;5.28;;;17.50;51.50;;;;;;4863369;29;20197;-69
2021/03/25 07:00:26;;;;;;;5.70;5.30;;;17.60;51.50;;;;;;4879049;29;20233;-69
2021/03/25 07:02:52;;;;;;;6.20;5.60;;;17.60;51.50;;;;;;4879244;29;20232;-68
2021/03/25 07:05:21;;;;;;;6.00;5.40;;;17.50;51.50;;;;;;4878563;29;20268;-67
2021/03/25 07:07:47;;;;;;;6.35;5.38;;;17.50;51.50;;;;;;4879400;29;20514;-66
2021/03/25 07:10:15;;;;;;;5.68;5.18;;;17.50;51.50;;;;;;4878615;29;20186;-69
2021/03/25 07:12:43;;;;;;;5.97;5.47;;;17.50;51.50;;;;;;4878957;29;20192;-68
2021/03/25 07:15:17;;;;;;;6.18;5.68;;;17.50;51.50;;;;;;4879083;29;20264;-67
2021/03/25 07:17:43;;;;;;;5.97;5.38;;;17.50;51.50;;;;;;4878359;29;20201;-67
2021/03/25 07:20:23;;;;;;;5.40;4.90;;;17.50;51.60;;;;;;4879026;29;20170;-71
2021/03/25 07:23:09;;;;;;;5.78;5.28;;;17.50;51.60;;;;;;4880122;29;20187;-67
2021/03/25 07:25:50;;;;;;;6.47;5.88;;;17.50;51.70;;;;;;4879273;29;20654;-69
2021/03/25 07:28:20;;;;;;;5.40;4.90;;;17.40;51.60;;;;;;4863667;29;20203;-68
2021/03/25 07:30:48;;;;;;;5.78;5.28;;;17.50;51.70;;;;;;4863315;29;20620;-69
2021/03/25 07:33:18;;;;;;;5.93;5.40;;;17.50;51.70;;;;;;4877909;29;20184;-71
2021/03/25 07:36:17;;;;;;;6.35;5.75;;;17.50;51.70;;;;;;4878717;29;20181;-67
2021/03/25 07:38:43;;;;;;;6.40;5.38;;;17.50;51.60;;;;;;4837271;29;20229;-66
2021/03/25 07:41:22;;;;;;;6.78;5.93;;;17.50;51.50;;;;;;4878580;29;20314;-69
2021/03/25 07:44:02;;;;;;;5.63;5.13;;;17.50;51.50;;;;;;4862968;29;20622;-69
2021/03/25 07:46:43;;;;;;;6.60;5.90;;;17.50;51.40;;;;;;4878131;29;20528;-65
2021/03/25 07:49:13;;;;;;;6.80;5.60;;;17.50;51.50;;;;;;4879750;29;20177;-83
2021/03/25 07:51:56;;;;;;;6.40;5.80;;;17.60;51.60;;;;;;4879291;29;20185;-83
2021/03/25 07:54:26;;;;;;;8.93;6.70;;;17.60;51.50;;;;;;4878677;29;20177;-66
2021/03/25 07:57:12;;;;;;;7.35;6.65;;;17.70;51.60;;;;;;4879426;29;20220;-70
2021/03/25 07:59:55;;;;;;;12.30;7.88;;;17.70;51.80;;;;;;4878587;29;20232;-71
2021/03/25 08:02:35;;;;;;;11.63;8.10;;;17.80;52.60;;;;;;4879285;29;20177;-75
2021/03/25 08:05:24;;;;;;;12.20;8.88;;;17.80;51.80;;;;;;4862615;29;20196;-77
2021/03/25 08:07:51;;;;;;;16.40;11.63;;;17.80;51.90;;;;;;4862053;29;20257;-77
2021/03/25 08:10:28;;;;;;;18.10;11.98;;;17.90;51.90;;;;;;4879119;29;20252;-79
2021/03/25 08:13:11;;;;;;;14.00;11.40;;;17.90;52.00;;;;;;4878074;29;20172;-80
2021/03/25 08:15:39;;;;;;;14.55;12.23;;;17.90;52.00;;;;;;4877127;29;20560;-75
2021/03/25 08:18:20;;;;;;;13.80;12.15;;;18.00;52.20;;;;;;4879098;29;20220;-76
2021/03/25 08:20:48;;;;;;;18.63;13.80;;;18.00;52.10;;;;;;4877471;29;20236;-75
2021/03/25 08:23:34;;;;;;;17.02;14.40;;;18.10;52.10;;;;;;4879106;29;20228;-78
2021/03/25 08:26:04;;;;;;;19.60;14.73;;;18.10;52.00;;;;;;4877766;29;20172;-72
2021/03/25 08:28:57;;;;;;;17.00;14.18;;;18.00;52.00;;;;;;4877000;29;20265;-77
2021/03/25 08:31:39;;;;;;;22.45;15.77;;;18.10;52.10;;;;;;4883716;29;20173;-72
2021/03/25 08:34:12;;;;;;;20.50;15.23;;;18.10;52.20;;;;;;4877324;29;20192;-76
2021/03/25 08:37:06;;;;;;;19.50;14.20;;;18.10;52.20;;;;;;4877090;29;20649;-72
2021/03/25 08:39:41;;;;;;;17.00;13.50;;;18.10;52.40;;;;;;4890209;29;20204;-72
2021/03/25 08:42:26;;;;;;;16.30;13.05;;;18.10;52.30;;;;;;4896861;29;20177;-71
2021/03/25 08:45:09;;;;;;;16.38;13.18;;;18.10;52.30;;;;;;4896811;29;20172;-71
2021/03/25 08:48:04;;;;;;;17.30;12.48;;;18.10;52.40;;;;;;4887451;29;20188;-70
2021/03/25 08:51:02;;;;;;;16.00;12.10;;;18.20;52.40;;;;;;4876950;29;20232;-71
2021/03/25 08:53:40;;;;;;;18.77;11.93;;;18.20;52.40;;;;;;4877568;29;20177;-73
2021/03/25 08:56:36;;;;;;;13.85;10.90;;;18.20;52.60;;;;;;4888838;29;20267;-72
2021/03/25 08:59:04;;;;;;;15.30;10.90;;;18.20;52.60;;;;;;4898384;29;20668;-71
2021/03/25 09:01:40;;;;;;;17.67;11.75;;;18.20;52.60;;;;;;4914767;29;20164;-69
2021/03/25 09:04:09;;;;;;;13.32;10.65;;;18.30;52.60;;;;;;4910103;29;20546;-68
2021/03/25 09:06:36;;;;;;;13.00;9.77;;;18.30;52.50;;;;;;4896098;29;20224;-68
2021/03/25 09:09:24;;;;;;;12.93;9.48;;;18.30;52.40;;;;;;4896142;29;20617;-68
2021/03/25 09:11:50;;;;;;;12.73;9.35;;;18.30;52.30;;;;;;4895337;29;20169;-67
2021/03/25 09:14:20;;;;;;;11.93;8.88;;;18.40;52.30;;;;;;4897236;29;20181;-68
2021/03/25 09:16:45;;;;;;;12.95;9.70;;;18.40;52.90;;;;;;4895618;29;20173;-71
2021/03/25 09:19:20;;;;;;;10.95;8.98;;;18.40;52.20;;;;;;4880326;29;20630;-70
2021/03/25 09:21:47;;;;;;;11.88;9.38;;;18.40;52.20;;;;;;4895996;29;20172;-69
2021/03/25 09:24:12;;;;;;;11.05;8.23;;;18.50;52.10;;;;;;4879631;29;20256;-65
2021/03/25 09:26:50;;;;;;;11.07;8.13;;;18.50;52.10;;;;;;4895812;29;21002;-65
2021/03/25 09:29:16;;;;;;;8.93;7.95;;;18.60;52.10;;;;;;4896965;29;20207;-65
2021/03/25 09:32:06;;;;;;;9.50;7.75;;;18.50;52.70;;;;;;4895173;29;20604;-65
2021/03/25 09:34:49;;;;;;;10.05;7.25;;;18.50;52.10;;;;;;4896623;29;20177;-66
2021/03/25 09:37:19;;;;;;;9.18;7.07;;;18.50;52.10;;;;;;4880200;29;20249;-65
2021/03/25 09:39:46;;;;;;;10.32;7.03;;;18.40;52.10;;;;;;4895085;29;20591;-65
2021/03/25 09:42:14;;;;;;;8.82;6.40;;;18.40;52.20;;;;;;4880249;29;20268;-65
2021/03/25 09:44:40;;;;;;;9.07;6.88;;;18.40;52.20;;;;;;4895397;29;20187;-65
2021/03/25 09:47:36;;;;;;;7.93;6.22;;;18.40;52.30;;;;;;4879628;29;21017;-66
2021/03/25 09:50:01;;;;;;;7.90;6.30;;;18.40;52.20;;;;;;4895076;29;20245;-65
2021/03/25 09:52:28;;;;;;;7.60;6.07;;;18.50;52.10;;;;;;4896060;29;20173;-65
2021/03/25 09:54:53;;;;;;;6.78;6.07;;;18.50;52.10;;;;;;4896819;29;20169;-66
2021/03/25 09:57:31;;;;;;;6.78;6.07;;;18.60;52.00;;;;;;4896912;29;20188;-67
2021/03/25 10:00:01;;;;;;;7.78;5.53;;;18.60;51.90;;;;;;4899271;29;20263;-65
2021/03/25 10:02:44;;;;;;;6.70;5.22;;;18.60;51.90;;;;;;4899961;29;20267;-66
2021/03/25 10:05:25;;;;;;;9.20;5.90;;;18.60;51.90;;;;;;4899937;29;20177;-65
2021/03/25 10:07:58;;;;;;;6.47;5.70;;;18.60;51.90;;;;;;4899504;29;20699;-65
2021/03/25 10:10:23;;;;;;;7.32;5.88;;;18.60;51.90;;;;;;4883165;29;20177;-66
2021/03/25 10:13:02;;;;;;;6.40;4.82;;;18.60;52.00;;;;;;4899881;29;20224;-64
2021/03/25 10:15:27;;;;;;;8.07;5.45;;;18.50;52.00;;;;;;4899570;29;20618;-65
2021/03/25 10:17:54;;;;;;;7.20;5.38;;;18.50;52.10;;;;;;4899868;29;20232;-65
2021/03/25 10:20:53;;;;;;;6.47;5.28;;;18.50;52.10;;;;;;4882343;29;20252;-65
2021/03/25 10:23:49;;;;;;;6.10;4.75;;;18.50;52.10;;;;;;4898253;29;20177;-65
2021/03/25 10:26:41;;;;;;;5.85;5.13;;;18.50;52.10;;;;;;4898745;29;20184;-65
2021/03/25 10:29:09;;;;;;;6.68;5.20;;;18.50;52.10;;;;;;4868736;29;20184;-65
2021/03/25 10:31:40;;;;;;;5.80;5.25;;;18.50;52.10;;;;;;4899396;29;20177;-66
2021/03/25 10:34:12;;;;;;;5.68;5.07;;;18.60;52.10;;;;;;4866889;29;20665;-66
2021/03/25 10:36:54;;;;;;;6.88;5.10;;;18.60;52.00;;;;;;4867673;29;20191;-66
2021/03/25 10:39:32;;;;;;;8.02;5.32;;;18.70;51.90;;;;;;4868554;29;20217;-65
2021/03/25 10:42:09;;;;;;;6.28;5.18;;;18.70;51.90;;;;;;4897775;29;20200;-67
2021/03/25 10:44:35;;;;;;;5.60;5.10;;;18.70;51.90;;;;;;4898203;29;20671;-71
2021/03/25 10:47:08;;;;;;;5.50;5.00;;;18.60;51.90;;;;;;4882508;29;20180;-72
2021/03/25 10:49:54;;;;;;;12.15;8.23;;;18.60;52.10;;;;;;4866053;29;20180;-73
2021/03/25 10:52:32;;;;;;;12.20;8.35;;;18.50;52.20;;;;;;4897964;29;20724;-80
2021/03/25 10:54:59;;;;;;;9.02;7.95;;;18.40;52.20;;;;;;4882385;29;20209;-73
2021/03/25 10:57:26;;;;;;;11.05;8.18;;;18.40;52.30;;;;;;4881669;29;20165;-73
2021/03/25 11:00:00;;;;;;;12.20;9.35;;;18.40;52.30;;;;;;4887925;29;20228;-75
2021/03/25 11:02:27;;;;;;;11.27;8.38;;;18.40;52.20;;;;;;4897262;29;20176;-66
2021/03/25 11:05:20;;;;;;;11.63;8.82;;;18.40;52.80;;;;;;4899475;29;20505;-71
2021/03/25 11:07:52;;;;;;;17.27;8.40;;;18.40;52.90;;;;;;4898330;29;20199;-72
2021/03/25 11:10:22;;;;;;;10.68;7.80;;;18.40;52.20;;;;;;4912091;29;20173;-68
2021/03/25 11:13:04;;;;;;;8.82;7.82;;;18.50;52.30;;;;;;4912941;29;20584;-67
2021/03/25 11:15:35;;;;;;;11.70;8.13;;;18.50;52.30;;;;;;4897240;29;20224;-68
2021/03/25 11:18:21;;;;;;;11.05;7.50;;;18.60;52.00;;;;;;4897060;29;20231;-68
2021/03/25 11:20:48;;;;;;;10.38;7.95;;;18.60;52.10;;;;;;4913337;29;20721;-69
2021/03/25 11:23:15;;;;;;;13.75;7.78;;;18.60;52.20;;;;;;4881325;29;20641;-69
2021/03/25 11:25:40;;;;;;;8.52;7.43;;;18.60;52.20;;;;;;4912126;29;20632;-69
2021/03/25 11:28:10;;;;;;;9.68;7.10;;;18.70;52.30;;;;;;4913108;29;20259;-68
2021/03/25 11:30:37;;;;;;;10.38;7.85;;;18.60;52.30;;;;;;4880999;29;20196;-68
2021/03/25 11:33:40;;;;;;;10.23;6.93;;;18.60;52.40;;;;;;4912994;29;20629;-68
2021/03/25 11:36:06;;;;;;;9.18;6.60;;;18.60;52.40;;;;;;4910172;29;20200;-69
2021/03/25 11:38:37;;;;;;;8.55;6.85;;;18.70;52.50;;;;;;4911907;29;20571;-69
2021/03/25 11:41:11;;;;;;;8.57;6.35;;;18.60;52.90;;;;;;4881832;29;20168;-68
2021/03/25 11:43:46;;;;;;;7.43;6.35;;;18.70;52.30;;;;;;4881538;29;20650;-68
2021/03/25 11:46:27;;;;;;;7.45;6.32;;;18.70;52.40;;;;;;4881941;29;20195;-75
2021/03/25 11:49:12;;;;;;;7.25;6.18;;;18.60;52.30;;;;;;4881999;29;20225;-69
2021/03/25 11:51:58;;;;;;;8.57;6.53;;;18.60;52.40;;;;;;4880698;29;20259;-67
2021/03/25 11:54:29;;;;;;;11.77;6.70;;;18.60;52.40;;;;;;4881292;29;20676;-65
2021/03/25 11:56:56;;;;;;;10.38;7.25;;;18.60;52.40;;;;;;4881543;29;20271;-68
2021/03/25 11:59:41;;;;;;;12.38;7.97;;;18.60;52.40;;;;;;4875435;29;20229;-72
2021/03/25 12:02:08;;;;;;;8.18;6.72;;;18.50;52.40;;;;;;4862917;29;20252;-68
2021/03/25 12:04:34;;;;;;;9.73;7.15;;;18.40;52.50;;;;;;4862461;29;20236;-66
2021/03/25 12:07:12;;;;;;;9.70;6.63;;;18.40;52.60;;;;;;4878788;29;20186;-66
2021/03/25 12:09:56;;;;;;;8.02;6.25;;;18.40;52.60;;;;;;4878863;29;20513;-66
2021/03/25 12:12:22;;;;;;;7.20;5.70;;;18.30;52.50;;;;;;4865018;29;20257;-67
2021/03/25 12:14:47;;;;;;;7.45;5.35;;;18.30;53.20;;;;;;4862034;29;20265;-66
2021/03/25 12:17:13;;;;;;;7.65;5.72;;;18.30;52.60;;;;;;4878969;29;20181;-67
2021/03/25 12:19:39;;;;;;;6.85;5.53;;;18.30;52.60;;;;;;4861678;29;20279;-68
2021/03/25 12:22:06;;;;;;;5.95;5.35;;;18.30;52.60;;;;;;4862503;29;20177;-67
2021/03/25 12:24:32;;;;;;;6.70;4.70;;;18.30;52.60;;;;;;4862260;29;20178;-68
2021/03/25 12:26:57;;;;;;;5.47;4.88;;;18.30;52.60;;;;;;4861751;29;20240;-66
2021/03/25 12:29:23;;;;;;;5.80;5.20;;;18.30;52.60;;;;;;4878738;29;20649;-67
2021/03/25 12:31:48;;;;;;;6.10;5.20;;;18.30;52.50;;;;;;4862309;29;20544;-68
2021/03/25 12:34:16;;;;;;;6.38;4.72;;;18.30;52.40;;;;;;4878536;29;20213;-70
2021/03/25 12:36:41;;;;;;;5.32;4.82;;;18.30;52.40;;;;;;4846623;29;20187;-66
2021/03/25 12:39:08;;;;;;;4.97;4.50;;;18.30;52.40;;;;;;4878656;29;20216;-68
2021/03/25 12:41:39;;;;;;;6.28;4.60;;;18.30;52.40;;;;;;4861503;29;20312;-66
2021/03/25 12:44:05;;;;;;;5.35;4.82;;;18.30;52.50;;;;;;4847368;29;20286;-66
2021/03/25 12:46:31;;;;;;;5.55;4.75;;;18.20;52.50;;;;;;4862124;29;20647;-68
2021/03/25 12:48:56;;;;;;;5.30;4.80;;;18.20;52.60;;;;;;4861533;29;20256;-66
2021/03/25 12:51:22;;;;;;;5.95;4.75;;;18.10;53.20;;;;;;4878689;29;20182;-66
2021/03/25 12:53:48;;;;;;;5.38;4.80;;;18.10;52.60;;;;;;4846580;29;20638;-67
2021/03/25 12:56:15;;;;;;;5.60;4.93;;;18.10;52.60;;;;;;4861825;29;20516;-67
2021/03/25 12:58:40;;;;;;;5.82;4.57;;;18.10;52.60;;;;;;4846596;29;20224;-69
2021/03/25 13:01:14;;;;;;;5.00;4.40;;;18.10;52.60;;;;;;4861887;29;20229;-68
2021/03/25 13:03:40;;;;;;;4.97;4.50;;;18.10;52.60;;;;;;4861225;29;20177;-66
2021/03/25 13:06:06;;;;;;;5.20;4.70;;;18.10;52.60;;;;;;4861924;29;20638;-66
2021/03/25 13:08:31;;;;;;;4.95;4.45;;;18.00;52.60;;;;;;4861821;29;20185;-66
2021/03/25 13:10:57;;;;;;;5.13;4.22;;;18.00;52.60;;;;;;4878044;29;20665;-65
2021/03/25 13:13:23;;;;;;;4.97;4.47;;;18.00;52.50;;;;;;4833337;29;20677;-69
2021/03/25 13:15:49;;;;;;;6.05;4.70;;;18.00;52.60;;;;;;4881048;29;20188;-66
2021/03/25 13:18:14;;;;;;;5.88;4.00;;;18.00;52.60;;;;;;4861352;29;20284;-67